aviador You're here:

YSNF Decoded Metar

NORFOLK ISLAND in AUSTRALIA
Report Time2017-05-23 20:00:00
UTC Time2017-05-23 20:28:39
Flight Rules vfr VFR
Wind080° at 13 kt
W.Decomp.*RWY 04: 11.8 kt HW 5.5 kt RCW
RWY 11: 9.2 kt HW 9.2 kt LCW
W.Rank080° ranks 6
Current wind is above 080° avg. (10.5)
Visibility9999 m
Phenomena:N/A
Clouds:N/A
Expected CloudBase > 2,000 ft AGL from Temp-Dew spread
CeilingNone
Temp20°C (ISA +6)
Dew Point15°C (73% RH)
AAT16.9°C
QNH1018 hPa
Density Alt1,086 ft
Elevation358 ft
Report Wrong Elevation
Raw Report
METAR YSNF 232000Z AUTO 08013KT 9999 // NCD 20/15 Q1018=

Extra information for YSNF:More info

Metar Taf Metar & Taf Last 4 Metars F.Rules Stats Wind Profile Meteogram Temp Stats Airport Information Weather charts Add Link Nearby VenuesMetar ALERT Operation Metar Decoded Social comments